createdAt,value
2022-11-01T00:02:11.243Z,100701.94
2022-11-01T00:04:38.245Z,100704.59
2022-11-01T00:07:06.156Z,100701.06
2022-11-01T00:09:33.481Z,100698.34
2022-11-01T00:12:00.489Z,100700.13
2022-11-01T00:14:27.704Z,100698.31
2022-11-01T00:16:54.660Z,100688.56
2022-11-01T00:19:21.731Z,100683.28
2022-11-01T00:21:48.740Z,100678.00
2022-11-01T00:24:15.695Z,100685.00
2022-11-01T00:26:42.733Z,100675.31
2022-11-01T00:29:11.207Z,100675.31
2022-11-01T00:31:38.273Z,100676.19
2022-11-01T00:34:06.813Z,100679.69
2022-11-01T00:36:36.076Z,100678.78
2022-11-01T00:39:04.147Z,100672.59
2022-11-01T00:41:31.389Z,100659.31
2022-11-01T00:43:58.770Z,100668.16
2022-11-01T00:46:26.078Z,100665.50
2022-11-01T00:48:53.033Z,100661.13
2022-11-01T00:51:20.058Z,100662.81
2022-11-01T00:53:47.067Z,100672.53
2022-11-01T00:56:14.013Z,100680.44
2022-11-01T00:58:41.043Z,100672.50
2022-11-01T01:01:08.210Z,100674.31
2022-11-01T01:03:35.568Z,100672.47
2022-11-01T01:06:03.062Z,100668.03
2022-11-01T01:08:30.266Z,100664.47
2022-11-01T01:10:57.247Z,100666.22
2022-11-01T01:13:24.393Z,100651.97
2022-11-01T01:15:51.438Z,100654.63
2022-11-01T01:18:18.467Z,100663.50
2022-11-01T01:20:45.451Z,100649.34
2022-11-01T01:23:12.416Z,100656.38
2022-11-01T01:25:42.177Z,100650.16
2022-11-01T01:28:09.703Z,100651.06
2022-11-01T01:30:41.256Z,100673.13
2022-11-01T01:33:09.484Z,100658.13
2022-11-01T01:35:38.531Z,100655.41
2022-11-01T01:38:06.714Z,100666.91
2022-11-01T01:40:34.850Z,100668.63
2022-11-01T01:43:01.926Z,100667.78
2022-11-01T01:45:35.704Z,100668.66
2022-11-01T01:48:12.709Z,100666.06
2022-11-01T01:50:47.488Z,100661.59
2022-11-01T01:53:43.690Z,100659.81
2022-11-01T01:56:23.359Z,100661.53
2022-11-01T01:59:10.888Z,100659.75
2022-11-01T02:01:41.174Z,100665.09
2022-11-01T02:04:22.914Z,100666.81
2022-11-01T02:06:50.052Z,100658.81
2022-11-01T02:09:18.209Z,100657.09
2022-11-01T02:11:45.288Z,100658.78
2022-11-01T02:14:12.467Z,100654.41
2022-11-01T02:17:37.496Z,100669.41
2022-11-01T02:20:43.145Z,100660.59
2022-11-01T02:23:27.495Z,100661.44
2022-11-01T02:26:37.179Z,100674.72
2022-11-01T02:29:10.112Z,100680.03
2022-11-01T02:32:01.440Z,100683.59
2022-11-01T02:34:44.078Z,100703.97
2022-11-01T02:37:23.000Z,100705.75
2022-11-01T02:39:57.886Z,100711.13
2022-11-01T02:42:38.088Z,100709.41
2022-11-01T02:45:27.876Z,100713.88
2022-11-01T02:48:00.424Z,100718.28
2022-11-01T02:50:37.034Z,100734.25
2022-11-01T02:53:05.231Z,100735.16
2022-11-01T02:55:35.473Z,100725.50
2022-11-01T02:58:25.319Z,100736.97
2022-11-01T03:00:52.932Z,100733.44
2022-11-01T03:03:21.195Z,100745.88
2022-11-01T03:06:08.918Z,100746.84
2022-11-01T03:08:49.574Z,100759.22
2022-11-01T03:11:19.418Z,100746.88
2022-11-01T03:14:01.293Z,100764.53
2022-11-01T03:17:00.524Z,100767.25
2022-11-01T03:19:51.283Z,100776.09
2022-11-01T03:22:35.282Z,100771.72
2022-11-01T03:25:34.869Z,100798.22
2022-11-01T03:28:25.334Z,100784.09
2022-11-01T03:31:07.589Z,100799.13
2022-11-01T03:33:38.427Z,100792.09
2022-11-01T03:36:14.484Z,100800.03
2022-11-01T03:38:52.826Z,100810.66
2022-11-01T03:41:21.626Z,100817.72
2022-11-01T03:43:48.688Z,100823.94
2022-11-01T03:46:16.644Z,100829.22
2022-11-01T03:48:43.933Z,100835.41
2022-11-01T03:51:11.094Z,100832.78
2022-11-01T03:53:38.277Z,100838.09
2022-11-01T03:56:05.571Z,100836.31
2022-11-01T03:58:46.034Z,100840.72
2022-11-01T04:01:16.449Z,100843.38
2022-11-01T04:03:45.026Z,100845.16
2022-11-01T04:06:12.018Z,100850.47
2022-11-01T04:08:38.987Z,100848.72
2022-11-01T04:11:06.049Z,100858.38
2022-11-01T04:13:33.133Z,100869.00
2022-11-01T04:16:18.748Z,100875.16
2022-11-01T04:19:14.524Z,100875.16
2022-11-01T04:21:41.813Z,100883.13
2022-11-01T04:24:09.701Z,100899.00
2022-11-01T04:26:36.840Z,100901.66
2022-11-01T04:29:03.848Z,100901.66
2022-11-01T04:31:36.663Z,100916.66
2022-11-01T04:34:05.874Z,100921.06
2022-11-01T04:36:32.878Z,100925.47
2022-11-01T04:39:00.070Z,100931.63
2022-11-01T04:41:29.250Z,100936.06
2022-11-01T04:43:58.965Z,100935.16
2022-11-01T04:46:29.084Z,100951.94
2022-11-01T04:48:56.041Z,100937.75
2022-11-01T04:51:22.992Z,100945.69
2022-11-01T04:53:49.938Z,100951.84
2022-11-01T04:56:16.932Z,100958.91
2022-11-01T04:58:46.136Z,100954.50
2022-11-01T05:01:15.026Z,100952.69
2022-11-01T05:03:43.348Z,100950.91
2022-11-01T05:06:10.524Z,100960.63
2022-11-01T05:08:37.595Z,100954.44
2022-11-01T05:11:04.853Z,100957.06
2022-11-01T05:13:32.292Z,100956.19
2022-11-01T05:16:19.773Z,100953.53
2022-11-01T05:18:48.113Z,100958.81
2022-11-01T05:21:15.124Z,100964.97
2022-11-01T05:23:42.152Z,100979.09
2022-11-01T05:26:09.091Z,100971.09
2022-11-01T05:28:36.176Z,100982.56
2022-11-01T05:31:03.607Z,100977.25
2022-11-01T05:33:30.650Z,100970.19
2022-11-01T05:36:02.013Z,100977.22
2022-11-01T05:38:29.260Z,100972.84
2022-11-01T05:40:56.331Z,100983.41
2022-11-01T05:43:23.299Z,100998.38
2022-11-01T05:45:51.370Z,101007.19
2022-11-01T05:48:18.629Z,101001.88
2022-11-01T05:50:47.000Z,101012.44
2022-11-01T05:53:14.193Z,101022.97
2022-11-01T05:55:41.213Z,101020.31
2022-11-01T05:58:08.834Z,101025.59
2022-11-01T06:00:36.107Z,101031.75
2022-11-01T06:03:03.712Z,101039.69
2022-11-01T06:05:31.953Z,101033.59
2022-11-01T06:08:02.261Z,101022.97
2022-11-01T06:10:29.748Z,101035.28
2022-11-01T06:12:57.494Z,101040.53
2022-11-01T06:15:24.481Z,101041.41
2022-11-01T06:17:58.855Z,101037.00
2022-11-01T06:20:27.230Z,101045.75
2022-11-01T06:22:54.217Z,101051.91
2022-11-01T06:25:21.703Z,101044.88
2022-11-01T06:27:49.260Z,101049.31
2022-11-01T06:30:16.643Z,101062.47
2022-11-01T06:32:43.680Z,101065.97
2022-11-01T06:35:11.886Z,101075.59
2022-11-01T06:37:41.837Z,101069.53
2022-11-01T06:40:09.717Z,101077.44
2022-11-01T06:42:36.725Z,101086.09
2022-11-01T06:45:04.447Z,101091.44
2022-11-01T06:47:31.449Z,101100.31
2022-11-01T06:49:58.503Z,101091.19
2022-11-01T06:52:25.464Z,101097.97
2022-11-01T06:54:52.449Z,101087.94
2022-11-01T06:57:19.491Z,101103.69
2022-11-01T06:59:46.461Z,101096.41
2022-11-01T07:02:14.788Z,101105.16
2022-11-01T07:04:42.464Z,101119.31
2022-11-01T07:07:09.445Z,101121.00
2022-11-01T07:09:36.411Z,101122.69
2022-11-01T07:12:03.516Z,101128.81
2022-11-01T07:14:31.091Z,101141.22
2022-11-01T07:16:58.269Z,101142.06
2022-11-01T07:19:25.421Z,101145.56
2022-11-01T07:21:52.331Z,101137.53
2022-11-01T07:24:19.358Z,101147.19
2022-11-01T07:26:46.332Z,101146.28
2022-11-01T07:29:13.305Z,101149.88
2022-11-01T07:31:41.027Z,101156.94
2022-11-01T07:34:08.172Z,101166.69
2022-11-01T07:36:35.148Z,101168.47
2022-11-01T07:39:02.101Z,101176.38
2022-11-01T07:41:29.263Z,101168.41
2022-11-01T07:43:56.264Z,101181.72
2022-11-01T07:46:23.503Z,101182.56
2022-11-01T07:48:51.409Z,101186.94
2022-11-01T07:51:18.907Z,101187.84
2022-11-01T07:53:45.889Z,101185.19
2022-11-01T07:56:13.007Z,101194.88
2022-11-01T07:58:43.400Z,101208.25
2022-11-01T08:01:11.105Z,101202.91
2022-11-01T08:03:38.653Z,101202.88
2022-11-01T08:06:05.980Z,101196.72
2022-11-01T08:08:33.010Z,101198.47
2022-11-01T08:11:01.574Z,101198.47
2022-11-01T08:13:29.544Z,101198.47
2022-11-01T08:16:00.371Z,101195.72
2022-11-01T08:18:27.344Z,101206.38
2022-11-01T08:20:54.528Z,101207.28
2022-11-01T08:23:21.611Z,101210.78
2022-11-01T08:25:48.620Z,101210.81
2022-11-01T08:28:20.192Z,101217.91
2022-11-01T08:30:49.456Z,101215.22
2022-11-01T08:33:16.690Z,101218.75
2022-11-01T08:35:49.751Z,101215.22
2022-11-01T08:38:17.515Z,101219.66
2022-11-01T08:40:44.590Z,101240.06
2022-11-01T08:43:11.546Z,101238.31
2022-11-01T08:45:38.549Z,101235.72
2022-11-01T08:48:06.145Z,101250.78
2022-11-01T08:50:34.824Z,101242.78
2022-11-01T08:53:11.584Z,101248.09
2022-11-01T08:55:39.024Z,101249.91
2022-11-01T08:58:06.912Z,101250.72
2022-11-01T09:00:35.207Z,101260.56
2022-11-01T09:03:02.250Z,101254.31
2022-11-01T09:05:31.316Z,101260.53
2022-11-01T09:08:00.412Z,101276.53
2022-11-01T09:10:30.796Z,101273.84
2022-11-01T09:13:00.278Z,101277.44
2022-11-01T09:15:28.116Z,101289.00
2022-11-01T09:17:55.136Z,101278.31
2022-11-01T09:20:22.236Z,101285.38
2022-11-01T09:22:52.518Z,101291.63
2022-11-01T09:25:19.810Z,101285.41
2022-11-01T09:27:46.788Z,101288.97
2022-11-01T09:30:14.218Z,101291.59
2022-11-01T09:32:41.196Z,101306.69
2022-11-01T09:35:09.052Z,101304.03
2022-11-01T09:37:35.995Z,101308.50
2022-11-01T09:40:03.645Z,101324.50
2022-11-01T09:42:40.213Z,101314.69
2022-11-01T09:45:17.561Z,101321.84
2022-11-01T09:47:48.899Z,101315.59
2022-11-01T09:50:29.461Z,101322.69
2022-11-01T09:52:57.575Z,101324.50
2022-11-01T09:56:02.156Z,101323.53
2022-11-01T09:58:54.049Z,101326.25
2022-11-01T10:01:41.277Z,101322.72
2022-11-01T10:04:45.209Z,101327.94
2022-11-01T10:07:20.896Z,101322.63
2022-11-01T10:10:33.909Z,101331.56
2022-11-01T10:13:38.007Z,101320.03
2022-11-01T10:16:25.568Z,101326.19
2022-11-01T10:19:19.092Z,101333.34
2022-11-01T10:21:56.873Z,101340.44
2022-11-01T10:25:16.253Z,101334.09
2022-11-01T10:28:14.170Z,101337.75
2022-11-01T10:30:53.724Z,101346.66
2022-11-01T10:33:39.632Z,101335.91
2022-11-01T10:36:21.269Z,101329.69
2022-11-01T10:42:17.508Z,101345.72
2022-11-01T10:44:55.056Z,101357.22
2022-11-01T10:47:24.862Z,101359.91
2022-11-01T10:50:06.842Z,101349.22
2022-11-01T10:53:08.269Z,101347.47
2022-11-01T10:55:51.102Z,101349.28
2022-11-01T10:58:56.782Z,101342.16
2022-11-01T11:01:29.580Z,101352.81
2022-11-01T11:04:01.371Z,101354.53
2022-11-01T11:06:28.700Z,101340.31
2022-11-01T11:08:57.345Z,101343.78
2022-11-01T11:11:44.337Z,101347.34
2022-11-01T11:14:13.609Z,101351.88
2022-11-01T11:16:50.363Z,101350.09
2022-11-01T11:19:21.154Z,101347.41
2022-11-01T11:21:51.613Z,101344.72
2022-11-01T11:24:25.125Z,101357.13
2022-11-01T11:26:55.995Z,101348.22
2022-11-01T11:29:50.684Z,101350.94
2022-11-01T11:32:30.621Z,101346.50
2022-11-01T11:35:05.633Z,101350.06
2022-11-01T11:37:35.682Z,101347.38
2022-11-01T11:40:39.432Z,101352.66
2022-11-01T11:43:33.802Z,101349.06
2022-11-01T11:46:22.772Z,101334.84
2022-11-01T11:49:04.356Z,101344.66
2022-11-01T11:51:38.158Z,101346.47
2022-11-01T11:54:19.830Z,101342.84
2022-11-01T11:56:47.797Z,101341.03
2022-11-01T11:59:29.182Z,101336.56
2022-11-01T12:02:05.674Z,101347.28
2022-11-01T12:04:46.453Z,101333.03
2022-11-01T12:07:31.736Z,101332.06
2022-11-01T12:10:02.932Z,101339.22
2022-11-01T12:12:40.569Z,101327.72
2022-11-01T12:15:34.505Z,101330.25
2022-11-01T12:18:16.881Z,101333.81
2022-11-01T12:20:50.026Z,101319.59
2022-11-01T12:23:39.451Z,101332.03
2022-11-01T12:26:14.037Z,101324.03
2022-11-01T12:28:51.134Z,101326.72
2022-11-01T12:31:20.977Z,101333.84
2022-11-01T12:34:06.796Z,101324.03
2022-11-01T12:37:07.074Z,101313.28
2022-11-01T12:40:02.057Z,101321.25
2022-11-01T12:42:46.432Z,101323.09
2022-11-01T12:45:44.958Z,101317.72
2022-11-01T12:48:35.119Z,101316.88
2022-11-01T12:51:22.878Z,101312.44
2022-11-01T12:53:59.406Z,101307.91
2022-11-01T12:56:27.114Z,101304.31
2022-11-01T12:58:56.145Z,101303.41
2022-11-01T13:01:54.485Z,101310.56
2022-11-01T13:04:37.777Z,101299.91
2022-11-01T13:07:39.783Z,101291.06
2022-11-01T13:10:29.471Z,101299.00
2022-11-01T13:13:04.119Z,101298.09
2022-11-01T13:15:39.543Z,101302.50
2022-11-01T13:18:47.313Z,101293.66
2022-11-01T13:21:41.674Z,101295.41
2022-11-01T13:24:52.246Z,101300.72
2022-11-01T13:27:26.391Z,101292.72
2022-11-01T13:30:13.028Z,101288.28
2022-11-01T13:33:18.890Z,101286.50
2022-11-01T13:36:12.781Z,101294.56
2022-11-01T13:39:00.038Z,101290.91
2022-11-01T13:42:02.697Z,101281.13
2022-11-01T13:44:35.350Z,101285.53
2022-11-01T13:47:24.607Z,101287.31
2022-11-01T13:50:47.171Z,101289.19
2022-11-01T13:53:29.984Z,101296.25
2022-11-01T13:56:19.854Z,101301.63
2022-11-01T13:58:47.630Z,101306.97
2022-11-01T14:01:41.391Z,101290.94
2022-11-01T14:04:17.276Z,101291.78
2022-11-01T14:07:05.107Z,101298.91
2022-11-01T14:09:32.928Z,101313.13
2022-11-01T14:12:05.725Z,101308.72
2022-11-01T14:14:32.645Z,101314.03
2022-11-01T14:17:21.972Z,101318.38
2022-11-01T14:20:10.787Z,101307.72
2022-11-01T14:22:39.977Z,101310.41
2022-11-01T14:25:13.455Z,101317.53
2022-11-01T14:27:51.823Z,101313.19
2022-11-01T14:30:25.370Z,101303.31
2022-11-01T14:32:59.823Z,101303.28
2022-11-01T14:35:39.542Z,101308.69
2022-11-01T14:38:20.183Z,101295.31
2022-11-01T14:40:59.346Z,101303.31
2022-11-01T14:43:34.903Z,101301.50
2022-11-01T14:46:28.345Z,101309.59
2022-11-01T14:49:28.958Z,101313.13
2022-11-01T14:52:04.236Z,101315.81
2022-11-01T14:54:49.918Z,101319.41
2022-11-01T14:57:33.613Z,101314.97
2022-11-01T15:00:36.717Z,101305.97
2022-11-01T15:03:08.402Z,101298.84
2022-11-01T15:05:45.372Z,101308.69
2022-11-01T15:08:40.500Z,101306.06
2022-11-01T15:11:08.537Z,101303.41
2022-11-01T15:13:40.825Z,101289.19
2022-11-01T15:16:23.162Z,101298.84
2022-11-01T15:19:16.356Z,101292.66
2022-11-01T15:21:47.494Z,101283.75
2022-11-01T15:24:20.956Z,101285.56
2022-11-01T15:26:48.347Z,101290.94
2022-11-01T15:29:20.184Z,101289.97
2022-11-01T15:31:57.672Z,101291.69
2022-11-01T15:34:28.614Z,101294.41
2022-11-01T15:36:56.017Z,101297.19
2022-11-01T15:39:29.894Z,101298.94
2022-11-01T15:41:57.878Z,101304.19
2022-11-01T15:44:28.171Z,101301.53
2022-11-01T15:46:59.602Z,101306.06
2022-11-01T15:49:30.618Z,101295.38
2022-11-01T15:52:39.650Z,101295.38
2022-11-01T15:55:35.268Z,101305.13
2022-11-01T15:58:20.100Z,101306.91
2022-11-01T16:01:03.482Z,101307.09
2022-11-01T16:03:59.581Z,101318.72
2022-11-01T16:06:54.173Z,101316.91
2022-11-01T16:09:40.339Z,101315.16
2022-11-01T16:12:30.823Z,101314.25
2022-11-01T16:15:29.937Z,101317.81
2022-11-01T16:18:00.543Z,101321.34
2022-11-01T16:21:07.298Z,101324.84
2022-11-01T16:23:34.804Z,101322.19
2022-11-01T16:26:08.112Z,101315.09
2022-11-01T16:28:39.960Z,101319.53
2022-11-01T16:31:29.467Z,101320.41
2022-11-01T16:33:58.045Z,101315.09
2022-11-01T16:36:36.477Z,101314.22
2022-11-01T16:39:29.383Z,101322.16
2022-11-01T16:41:57.488Z,101313.34
2022-11-01T16:44:24.903Z,101319.53
2022-11-01T16:46:54.353Z,101321.28
2022-11-01T16:49:34.301Z,101319.50
2022-11-01T16:52:01.389Z,101322.16
2022-11-01T16:54:28.674Z,101320.41
2022-11-01T16:56:58.570Z,101314.22
2022-11-01T16:59:35.517Z,101309.78
2022-11-01T17:02:17.160Z,101324.81
2022-11-01T17:04:47.544Z,101310.69
2022-11-01T17:07:14.726Z,101309.78
2022-11-01T17:09:41.889Z,101311.56
2022-11-01T17:12:08.954Z,101316.00
2022-11-01T17:14:37.551Z,101300.06
2022-11-01T17:17:10.613Z,101316.00
2022-11-01T17:19:42.116Z,101302.72
2022-11-01T17:22:17.766Z,101300.97
2022-11-01T17:24:45.826Z,101305.38
2022-11-01T17:27:13.979Z,101303.63
2022-11-01T17:29:41.306Z,101302.72
2022-11-01T17:32:09.721Z,101310.69
2022-11-01T17:34:37.996Z,101306.28
2022-11-01T17:37:05.828Z,101298.31
2022-11-01T17:39:33.011Z,101301.84
2022-11-01T17:41:59.986Z,101303.59
2022-11-01T17:44:27.233Z,101307.13
2022-11-01T17:46:54.165Z,101312.44
2022-11-01T17:49:23.710Z,101308.03
2022-11-01T17:51:54.735Z,101315.09
2022-11-01T17:54:23.628Z,101301.78
2022-11-01T17:56:51.365Z,101314.16
2022-11-01T17:59:18.770Z,101315.94
2022-11-01T18:01:45.950Z,101311.56
2022-11-01T18:04:14.693Z,101311.56
2022-11-01T18:06:42.433Z,101317.75
2022-11-01T18:09:24.913Z,101322.13
2022-11-01T18:12:12.587Z,101311.53
2022-11-01T18:15:08.438Z,101319.47
2022-11-01T18:18:24.517Z,101325.66
2022-11-01T18:21:29.907Z,101320.31
2022-11-01T18:24:00.743Z,101332.69
2022-11-01T18:26:31.473Z,101326.50
2022-11-01T18:29:09.297Z,101328.25
2022-11-01T18:31:41.951Z,101324.81
2022-11-01T18:34:38.285Z,101327.41
2022-11-01T18:37:40.416Z,101338.88
2022-11-01T18:40:50.280Z,101322.97
2022-11-01T18:43:20.357Z,101333.56
2022-11-01T18:46:18.647Z,101331.88
2022-11-01T18:48:35.175Z,101325.66
2022-11-01T18:51:05.833Z,101336.22
2022-11-01T18:53:36.972Z,101329.13
2022-11-01T18:56:25.709Z,101330.91
2022-11-01T18:58:54.288Z,101333.56
2022-11-01T19:01:31.323Z,101330.00
2022-11-01T19:04:07.265Z,101310.56
2022-11-01T19:06:34.299Z,101318.44
2022-11-01T19:09:24.989Z,101316.69
2022-11-01T19:12:10.740Z,101321.09
2022-11-01T19:14:38.650Z,101319.31
2022-11-01T19:17:12.852Z,101316.69
2022-11-01T19:19:43.381Z,101314.91
2022-11-01T19:22:45.746Z,101314.03
2022-11-01T19:25:25.036Z,101313.13
2022-11-01T19:27:56.575Z,101299.91
2022-11-01T19:30:30.549Z,101308.72
2022-11-01T19:33:07.335Z,101309.66
2022-11-01T19:35:34.647Z,101308.72
2022-11-01T19:38:02.096Z,101306.13
2022-11-01T19:40:35.136Z,101307.84
2022-11-01T19:43:27.540Z,101314.03
2022-11-01T19:45:57.205Z,101312.25
2022-11-01T19:48:28.988Z,101315.75
2022-11-01T19:50:56.221Z,101306.03
2022-11-01T19:53:32.336Z,101304.19
2022-11-01T19:56:13.068Z,101305.94
2022-11-01T19:58:51.065Z,101311.25
2022-11-01T20:01:32.122Z,101306.91
2022-11-01T20:04:23.184Z,101317.41
2022-11-01T20:07:20.488Z,101321.78
2022-11-01T20:09:48.837Z,101339.44
2022-11-01T20:12:21.510Z,101344.69
2022-11-01T20:14:49.358Z,101346.47
2022-11-01T20:17:16.655Z,101364.84
2022-11-01T20:19:45.214Z,101355.97
2022-11-01T20:22:12.461Z,101359.38
2022-11-01T20:24:39.661Z,101349.63
2022-11-01T20:27:06.875Z,101329.34
2022-11-01T20:29:34.070Z,101340.78
2022-11-01T20:32:01.217Z,101332.88
2022-11-01T20:34:29.944Z,101331.09
2022-11-01T20:37:22.648Z,101331.06
2022-11-01T20:39:44.363Z,101322.25
2022-11-01T20:42:11.689Z,101331.03
2022-11-01T20:44:39.470Z,101336.38
2022-11-01T20:47:06.636Z,101346.91
2022-11-01T20:49:33.675Z,101349.50
2022-11-01T20:52:26.079Z,101350.34
2022-11-01T20:54:48.282Z,101353.91
2022-11-01T20:57:27.420Z,101355.63
2022-11-01T20:59:56.069Z,101368.84
2022-11-01T21:02:23.527Z,101369.66
2022-11-01T21:05:31.080Z,101365.19
2022-11-01T21:08:24.487Z,101376.56
2022-11-01T21:11:04.018Z,101352.81
2022-11-01T21:13:41.924Z,101360.63
2022-11-01T21:16:24.518Z,101378.22
2022-11-01T21:18:57.036Z,101379.09
2022-11-01T21:21:32.390Z,101381.63
2022-11-01T21:24:01.014Z,101383.41
2022-11-01T21:26:33.839Z,101367.53
2022-11-01T21:29:15.933Z,101366.66
2022-11-01T21:31:43.081Z,101349.97
2022-11-01T21:34:10.138Z,101378.91
2022-11-01T21:36:48.950Z,101367.50
2022-11-01T21:39:32.789Z,101362.22
2022-11-01T21:42:23.744Z,101377.09
2022-11-01T21:44:50.912Z,101377.09
2022-11-01T21:47:24.795Z,101365.66
2022-11-01T21:49:52.152Z,101364.84
2022-11-01T21:52:19.651Z,101348.97
2022-11-01T21:54:48.119Z,101342.75
2022-11-01T21:57:16.584Z,101333.94
2022-11-01T21:59:44.270Z,101333.91
2022-11-01T22:02:13.933Z,101335.63
2022-11-01T22:04:41.405Z,101332.13
2022-11-01T22:07:10.181Z,101332.97
2022-11-01T22:09:38.037Z,101316.22
2022-11-01T22:12:06.699Z,101303.00
2022-11-01T22:14:34.156Z,101301.25
2022-11-01T22:17:01.380Z,101300.34
2022-11-01T22:19:28.409Z,101292.44
2022-11-01T22:21:55.453Z,101287.16
2022-11-01T22:24:23.572Z,101290.66
2022-11-01T22:26:50.742Z,101283.63
2022-11-01T22:29:17.789Z,101275.69
2022-11-01T22:31:44.892Z,101270.41
2022-11-01T22:34:12.062Z,101275.69
2022-11-01T22:36:41.843Z,101273.03
2022-11-01T22:39:27.652Z,101274.81
2022-11-01T22:41:55.078Z,101270.47
2022-11-01T22:44:32.252Z,101275.75
2022-11-01T22:47:01.731Z,101266.94
2022-11-01T22:49:44.485Z,101266.97
2022-11-01T22:52:36.380Z,101267.84
2022-11-01T22:55:15.408Z,101263.44
2022-11-01T22:57:54.248Z,101266.13
2022-11-01T23:00:36.138Z,101273.22
2022-11-01T23:03:25.785Z,101267.94
2022-11-01T23:05:58.061Z,101269.75
2022-11-01T23:08:32.083Z,101266.19
2022-11-01T23:11:00.284Z,101259.22
2022-11-01T23:13:50.686Z,101268.91
2022-11-01T23:16:42.837Z,101276.00
2022-11-01T23:19:13.340Z,101284.88
2022-11-01T23:21:40.396Z,101288.34
2022-11-01T23:24:08.317Z,101282.22
2022-11-01T23:26:35.279Z,101290.16
2022-11-01T23:29:02.532Z,101276.97
2022-11-01T23:31:29.918Z,101281.34
2022-11-01T23:33:57.022Z,101262.81
2022-11-01T23:36:37.637Z,101256.66
2022-11-01T23:39:11.717Z,101273.38
2022-11-01T23:41:44.221Z,101271.56
2022-11-01T23:44:39.673Z,101271.53
2022-11-01T23:47:35.362Z,101268.03
2022-11-01T23:50:20.538Z,101268.09
2022-11-01T23:52:54.358Z,101269.88
2022-11-01T23:55:35.176Z,101273.41
